sensor_id;sensor_type;location;lat;lon;timestamp;temperature;humidity
15556;DHT22;7879;48.660;9.116;2023-09-08T00:00:17;15.90;99.90
15556;DHT22;7879;48.660;9.116;2023-09-08T00:02:44;16.00;99.90
15556;DHT22;7879;48.660;9.116;2023-09-08T00:05:11;16.00;99.90
15556;DHT22;7879;48.660;9.116;2023-09-08T00:07:38;15.90;99.90
15556;DHT22;7879;48.660;9.116;2023-09-08T00:10:05;15.80;99.90
15556;DHT22;7879;48.660;9.116;2023-09-08T00:12:32;15.80;99.90
15556;DHT22;7879;48.660;9.116;2023-09-08T00:14:58;15.80;99.90
15556;DHT22;7879;48.660;9.116;2023-09-08T00:17:25;15.70;99.90
15556;DHT22;7879;48.660;9.116;2023-09-08T00:19:52;15.70;99.90
15556;DHT22;7879;48.660;9.116;2023-09-08T00:22:18;15.70;99.90
15556;DHT22;7879;48.660;9.116;2023-09-08T00:24:45;15.70;99.90
15556;DHT22;7879;48.660;9.116;2023-09-08T00:27:12;15.60;99.90
15556;DHT22;7879;48.660;9.116;2023-09-08T00:29:39;15.70;99.90
15556;DHT22;7879;48.660;9.116;2023-09-08T00:32:05;15.50;99.90
15556;DHT22;7879;48.660;9.116;2023-09-08T00:34:32;15.50;99.90
15556;DHT22;7879;48.660;9.116;2023-09-08T00:36:59;15.60;99.90
15556;DHT22;7879;48.660;9.116;2023-09-08T00:39:31;15.40;99.90
15556;DHT22;7879;48.660;9.116;2023-09-08T00:41:58;15.40;99.90
15556;DHT22;7879;48.660;9.116;2023-09-08T00:44:25;15.30;99.90
15556;DHT22;7879;48.660;9.116;2023-09-08T00:46:51;15.30;99.90
15556;DHT22;7879;48.660;9.116;2023-09-08T00:49:19;15.20;99.90
15556;DHT22;7879;48.660;9.116;2023-09-08T00:51:46;15.20;99.90
15556;DHT22;7879;48.660;9.116;2023-09-08T00:54:14;15.20;99.90
15556;DHT22;7879;48.660;9.116;2023-09-08T00:56:42;15.30;99.90
15556;DHT22;7879;48.660;9.116;2023-09-08T00:59:09;15.20;99.90
15556;DHT22;7879;48.660;9.116;2023-09-08T01:01:36;15.20;99.90
15556;DHT22;7879;48.660;9.116;2023-09-08T01:04:02;15.10;99.90
15556;DHT22;7879;48.660;9.116;2023-09-08T01:06:31;15.00;99.90
15556;DHT22;7879;48.660;9.116;2023-09-08T01:08:59;15.00;99.90
15556;DHT22;7879;48.660;9.116;2023-09-08T01:11:26;15.00;99.90
15556;DHT22;7879;48.660;9.116;2023-09-08T01:13:53;14.90;99.90
15556;DHT22;7879;48.660;9.116;2023-09-08T01:16:20;14.90;99.90
15556;DHT22;7879;48.660;9.116;2023-09-08T01:18:47;14.80;99.90
15556;DHT22;7879;48.660;9.116;2023-09-08T01:21:27;14.90;99.90
15556;DHT22;7879;48.660;9.116;2023-09-08T01:24:27;14.90;99.90
15556;DHT22;7879;48.660;9.116;2023-09-08T01:26:57;14.80;99.90
15556;DHT22;7879;48.660;9.116;2023-09-08T01:29:25;14.70;99.90
15556;DHT22;7879;48.660;9.116;2023-09-08T01:31:53;14.70;99.90
15556;DHT22;7879;48.660;9.116;2023-09-08T01:34:20;14.70;99.90
15556;DHT22;7879;48.660;9.116;2023-09-08T01:36:47;14.70;99.90
15556;DHT22;7879;48.660;9.116;2023-09-08T01:39:14;14.70;99.90
15556;DHT22;7879;48.660;9.116;2023-09-08T01:41:41;14.60;99.90
15556;DHT22;7879;48.660;9.116;2023-09-08T01:44:08;14.60;99.90
15556;DHT22;7879;48.660;9.116;2023-09-08T01:46:37;14.60;99.90
15556;DHT22;7879;48.660;9.116;2023-09-08T01:49:05;14.60;99.90
15556;DHT22;7879;48.660;9.116;2023-09-08T01:51:32;14.50;99.90
15556;DHT22;7879;48.660;9.116;2023-09-08T01:53:58;14.50;99.90
15556;DHT22;7879;48.660;9.116;2023-09-08T01:56:25;14.50;99.90
15556;DHT22;7879;48.660;9.116;2023-09-08T01:58:52;14.50;99.90
15556;DHT22;7879;48.660;9.116;2023-09-08T02:01:19;14.50;99.90
15556;DHT22;7879;48.660;9.116;2023-09-08T02:03:46;14.50;99.90
15556;DHT22;7879;48.660;9.116;2023-09-08T02:06:13;14.50;99.90
15556;DHT22;7879;48.660;9.116;2023-09-08T02:08:40;14.40;99.90
15556;DHT22;7879;48.660;9.116;2023-09-08T02:11:06;14.30;99.90
15556;DHT22;7879;48.660;9.116;2023-09-08T02:13:33;14.30;99.90
15556;DHT22;7879;48.660;9.116;2023-09-08T02:16:00;14.30;99.90
15556;DHT22;7879;48.660;9.116;2023-09-08T02:18:27;14.20;99.90
15556;DHT22;7879;48.660;9.116;2023-09-08T02:20:54;14.30;99.90
15556;DHT22;7879;48.660;9.116;2023-09-08T02:23:21;14.20;99.90
15556;DHT22;7879;48.660;9.116;2023-09-08T02:25:48;14.20;99.90
15556;DHT22;7879;48.660;9.116;2023-09-08T02:28:15;14.20;99.90
15556;DHT22;7879;48.660;9.116;2023-09-08T02:30:41;14.20;99.90
15556;DHT22;7879;48.660;9.116;2023-09-08T02:33:08;14.20;99.90
15556;DHT22;7879;48.660;9.116;2023-09-08T02:35:37;14.00;99.90
15556;DHT22;7879;48.660;9.116;2023-09-08T02:38:05;14.10;99.90
15556;DHT22;7879;48.660;9.116;2023-09-08T02:40:32;14.00;99.90
15556;DHT22;7879;48.660;9.116;2023-09-08T02:43:01;14.00;99.90
15556;DHT22;7879;48.660;9.116;2023-09-08T02:45:29;13.90;99.90
15556;DHT22;7879;48.660;9.116;2023-09-08T02:47:56;13.90;99.90
15556;DHT22;7879;48.660;9.116;2023-09-08T02:50:23;13.90;99.90
15556;DHT22;7879;48.660;9.116;2023-09-08T02:52:50;13.80;99.90
15556;DHT22;7879;48.660;9.116;2023-09-08T02:55:16;13.80;99.90
15556;DHT22;7879;48.660;9.116;2023-09-08T02:57:43;13.80;99.90
15556;DHT22;7879;48.660;9.116;2023-09-08T03:00:10;13.70;99.90
15556;DHT22;7879;48.660;9.116;2023-09-08T03:02:37;13.70;99.90
15556;DHT22;7879;48.660;9.116;2023-09-08T03:05:04;13.70;99.90
15556;DHT22;7879;48.660;9.116;2023-09-08T03:07:32;13.70;99.90
15556;DHT22;7879;48.660;9.116;2023-09-08T03:10:00;13.80;99.90
15556;DHT22;7879;48.660;9.116;2023-09-08T03:12:27;13.80;99.90
15556;DHT22;7879;48.660;9.116;2023-09-08T03:14:54;13.70;99.90
15556;DHT22;7879;48.660;9.116;2023-09-08T03:17:21;13.60;99.90
15556;DHT22;7879;48.660;9.116;2023-09-08T03:19:48;13.60;99.90
15556;DHT22;7879;48.660;9.116;2023-09-08T03:22:14;13.60;99.90
15556;DHT22;7879;48.660;9.116;2023-09-08T03:24:41;13.60;99.90
15556;DHT22;7879;48.660;9.116;2023-09-08T03:27:08;13.50;99.90
15556;DHT22;7879;48.660;9.116;2023-09-08T03:29:35;13.50;99.90
15556;DHT22;7879;48.660;9.116;2023-09-08T03:32:02;13.50;99.90
15556;DHT22;7879;48.660;9.116;2023-09-08T03:34:29;13.50;99.90
15556;DHT22;7879;48.660;9.116;2023-09-08T03:36:56;13.60;99.90
15556;DHT22;7879;48.660;9.116;2023-09-08T03:39:23;13.50;99.90
15556;DHT22;7879;48.660;9.116;2023-09-08T03:41:49;13.40;99.90
15556;DHT22;7879;48.660;9.116;2023-09-08T03:44:16;13.40;99.90
15556;DHT22;7879;48.660;9.116;2023-09-08T03:46:43;13.30;99.90
15556;DHT22;7879;48.660;9.116;2023-09-08T03:49:10;13.30;99.90
15556;DHT22;7879;48.660;9.116;2023-09-08T03:51:36;13.30;99.90
15556;DHT22;7879;48.660;9.116;2023-09-08T03:54:03;13.30;99.90
15556;DHT22;7879;48.660;9.116;2023-09-08T03:56:30;13.20;99.90
15556;DHT22;7879;48.660;9.116;2023-09-08T03:58:57;13.10;99.90
15556;DHT22;7879;48.660;9.116;2023-09-08T04:01:23;13.10;99.90
15556;DHT22;7879;48.660;9.116;2023-09-08T04:03:50;13.10;99.90
15556;DHT22;7879;48.660;9.116;2023-09-08T04:06:17;13.10;99.90
15556;DHT22;7879;48.660;9.116;2023-09-08T04:08:44;13.20;99.90
15556;DHT22;7879;48.660;9.116;2023-09-08T04:11:11;13.20;99.90
15556;DHT22;7879;48.660;9.116;2023-09-08T04:13:37;13.10;99.90
15556;DHT22;7879;48.660;9.116;2023-09-08T04:16:04;13.00;99.90
15556;DHT22;7879;48.660;9.116;2023-09-08T04:18:31;13.00;99.90
15556;DHT22;7879;48.660;9.116;2023-09-08T04:20:58;12.90;99.90
15556;DHT22;7879;48.660;9.116;2023-09-08T04:23:25;12.90;99.90
15556;DHT22;7879;48.660;9.116;2023-09-08T04:25:52;12.90;99.90
15556;DHT22;7879;48.660;9.116;2023-09-08T04:28:19;12.90;99.90
15556;DHT22;7879;48.660;9.116;2023-09-08T04:30:45;12.90;99.90
15556;DHT22;7879;48.660;9.116;2023-09-08T04:33:12;12.80;99.90
15556;DHT22;7879;48.660;9.116;2023-09-08T04:35:39;12.80;99.90
15556;DHT22;7879;48.660;9.116;2023-09-08T04:38:07;12.80;99.90
15556;DHT22;7879;48.660;9.116;2023-09-08T04:40:34;12.80;99.90
15556;DHT22;7879;48.660;9.116;2023-09-08T04:43:01;12.80;99.90
15556;DHT22;7879;48.660;9.116;2023-09-08T04:45:28;12.90;99.90
15556;DHT22;7879;48.660;9.116;2023-09-08T04:47:55;12.90;99.90
15556;DHT22;7879;48.660;9.116;2023-09-08T04:50:21;12.90;99.90
15556;DHT22;7879;48.660;9.116;2023-09-08T04:52:48;12.90;99.90
15556;DHT22;7879;48.660;9.116;2023-09-08T04:55:16;12.80;99.90
15556;DHT22;7879;48.660;9.116;2023-09-08T04:57:44;12.80;99.90
15556;DHT22;7879;48.660;9.116;2023-09-08T05:00:11;12.70;99.90
15556;DHT22;7879;48.660;9.116;2023-09-08T05:02:38;12.70;99.90
15556;DHT22;7879;48.660;9.116;2023-09-08T05:05:05;12.70;99.90
15556;DHT22;7879;48.660;9.116;2023-09-08T05:07:32;12.60;99.90
15556;DHT22;7879;48.660;9.116;2023-09-08T05:09:59;12.60;99.90
15556;DHT22;7879;48.660;9.116;2023-09-08T05:12:25;12.60;99.90
15556;DHT22;7879;48.660;9.116;2023-09-08T05:14:52;12.60;99.90
15556;DHT22;7879;48.660;9.116;2023-09-08T05:17:23;12.60;99.90
15556;DHT22;7879;48.660;9.116;2023-09-08T05:19:50;12.60;99.90
15556;DHT22;7879;48.660;9.116;2023-09-08T05:22:17;12.60;99.90
15556;DHT22;7879;48.660;9.116;2023-09-08T05:24:44;12.50;99.90
15556;DHT22;7879;48.660;9.116;2023-09-08T05:27:11;12.50;99.90
15556;DHT22;7879;48.660;9.116;2023-09-08T05:29:38;12.50;99.90
15556;DHT22;7879;48.660;9.116;2023-09-08T05:32:05;12.60;99.90
15556;DHT22;7879;48.660;9.116;2023-09-08T05:34:31;12.60;99.90
15556;DHT22;7879;48.660;9.116;2023-09-08T05:36:58;12.70;99.90
15556;DHT22;7879;48.660;9.116;2023-09-08T05:39:25;12.70;99.90
15556;DHT22;7879;48.660;9.116;2023-09-08T05:41:52;12.80;99.90
15556;DHT22;7879;48.660;9.116;2023-09-08T05:44:19;12.80;99.90
15556;DHT22;7879;48.660;9.116;2023-09-08T05:46:46;12.80;99.90
15556;DHT22;7879;48.660;9.116;2023-09-08T05:49:13;12.80;99.90
15556;DHT22;7879;48.660;9.116;2023-09-08T05:51:40;12.90;99.90
15556;DHT22;7879;48.660;9.116;2023-09-08T05:54:07;12.90;99.90
15556;DHT22;7879;48.660;9.116;2023-09-08T05:56:37;13.00;99.90
15556;DHT22;7879;48.660;9.116;2023-09-08T05:59:04;13.00;99.90
15556;DHT22;7879;48.660;9.116;2023-09-08T06:01:31;13.00;99.90
15556;DHT22;7879;48.660;9.116;2023-09-08T06:03:58;13.10;99.90
15556;DHT22;7879;48.660;9.116;2023-09-08T06:06:25;13.10;99.90
15556;DHT22;7879;48.660;9.116;2023-09-08T06:08:52;13.10;99.90
15556;DHT22;7879;48.660;9.116;2023-09-08T06:11:19;13.10;99.90
15556;DHT22;7879;48.660;9.116;2023-09-08T06:13:46;13.20;99.90
15556;DHT22;7879;48.660;9.116;2023-09-08T06:16:13;13.20;99.90
15556;DHT22;7879;48.660;9.116;2023-09-08T06:18:40;13.30;99.90
15556;DHT22;7879;48.660;9.116;2023-09-08T06:21:07;13.30;99.90
15556;DHT22;7879;48.660;9.116;2023-09-08T06:23:35;13.40;99.90
15556;DHT22;7879;48.660;9.116;2023-09-08T06:26:03;13.40;99.90
15556;DHT22;7879;48.660;9.116;2023-09-08T06:28:30;13.50;99.90
15556;DHT22;7879;48.660;9.116;2023-09-08T06:30:57;13.40;99.90
15556;DHT22;7879;48.660;9.116;2023-09-08T06:33:24;13.40;99.90
15556;DHT22;7879;48.660;9.116;2023-09-08T06:35:51;13.50;99.90
15556;DHT22;7879;48.660;9.116;2023-09-08T06:38:20;13.60;99.90
15556;DHT22;7879;48.660;9.116;2023-09-08T06:40:47;13.70;99.90
15556;DHT22;7879;48.660;9.116;2023-09-08T06:43:14;13.70;99.90
15556;DHT22;7879;48.660;9.116;2023-09-08T06:45:41;13.90;99.90
15556;DHT22;7879;48.660;9.116;2023-09-08T06:48:09;14.00;99.90
15556;DHT22;7879;48.660;9.116;2023-09-08T06:50:36;14.10;99.90
15556;DHT22;7879;48.660;9.116;2023-09-08T06:53:03;14.10;99.90
15556;DHT22;7879;48.660;9.116;2023-09-08T06:55:30;14.20;99.90
15556;DHT22;7879;48.660;9.116;2023-09-08T06:57:57;14.20;99.90
15556;DHT22;7879;48.660;9.116;2023-09-08T07:00:24;14.30;99.90
15556;DHT22;7879;48.660;9.116;2023-09-08T07:02:51;14.40;99.90
15556;DHT22;7879;48.660;9.116;2023-09-08T07:05:18;14.50;99.90
15556;DHT22;7879;48.660;9.116;2023-09-08T07:07:45;14.50;99.90
15556;DHT22;7879;48.660;9.116;2023-09-08T07:10:14;14.60;99.90
15556;DHT22;7879;48.660;9.116;2023-09-08T07:12:42;14.70;99.90
15556;DHT22;7879;48.660;9.116;2023-09-08T07:15:09;14.80;99.90
15556;DHT22;7879;48.660;9.116;2023-09-08T07:17:36;14.80;99.90
15556;DHT22;7879;48.660;9.116;2023-09-08T07:20:04;14.90;99.90
15556;DHT22;7879;48.660;9.116;2023-09-08T07:22:31;15.00;99.90
15556;DHT22;7879;48.660;9.116;2023-09-08T07:24:58;15.00;99.90
15556;DHT22;7879;48.660;9.116;2023-09-08T07:27:24;15.10;99.90
15556;DHT22;7879;48.660;9.116;2023-09-08T07:29:51;15.20;99.90
15556;DHT22;7879;48.660;9.116;2023-09-08T07:32:18;15.40;99.90
15556;DHT22;7879;48.660;9.116;2023-09-08T07:34:45;15.60;99.90
15556;DHT22;7879;48.660;9.116;2023-09-08T07:37:12;15.60;99.90
15556;DHT22;7879;48.660;9.116;2023-09-08T07:39:39;15.80;99.90
15556;DHT22;7879;48.660;9.116;2023-09-08T07:42:06;15.90;99.90
15556;DHT22;7879;48.660;9.116;2023-09-08T07:44:34;16.10;99.90
15556;DHT22;7879;48.660;9.116;2023-09-08T07:47:01;16.10;99.90
15556;DHT22;7879;48.660;9.116;2023-09-08T07:49:28;16.20;99.90
15556;DHT22;7879;48.660;9.116;2023-09-08T07:51:55;16.30;99.90
15556;DHT22;7879;48.660;9.116;2023-09-08T07:54:22;16.40;99.90
15556;DHT22;7879;48.660;9.116;2023-09-08T07:56:49;16.50;99.90
15556;DHT22;7879;48.660;9.116;2023-09-08T07:59:15;16.60;99.90
15556;DHT22;7879;48.660;9.116;2023-09-08T08:01:42;16.70;99.90
15556;DHT22;7879;48.660;9.116;2023-09-08T08:04:09;16.80;99.90
15556;DHT22;7879;48.660;9.116;2023-09-08T08:06:38;17.10;99.90
15556;DHT22;7879;48.660;9.116;2023-09-08T08:09:05;17.20;99.90
15556;DHT22;7879;48.660;9.116;2023-09-08T08:11:32;17.10;99.90
15556;DHT22;7879;48.660;9.116;2023-09-08T08:13:59;17.30;99.90
15556;DHT22;7879;48.660;9.116;2023-09-08T08:16:25;17.60;99.90
15556;DHT22;7879;48.660;9.116;2023-09-08T08:18:52;17.50;99.90
15556;DHT22;7879;48.660;9.116;2023-09-08T08:21:20;17.60;99.90
15556;DHT22;7879;48.660;9.116;2023-09-08T08:23:50;17.60;99.90
15556;DHT22;7879;48.660;9.116;2023-09-08T08:26:17;17.80;99.90
15556;DHT22;7879;48.660;9.116;2023-09-08T08:28:45;18.00;99.90
15556;DHT22;7879;48.660;9.116;2023-09-08T08:31:11;18.00;99.90
15556;DHT22;7879;48.660;9.116;2023-09-08T08:33:38;18.00;99.90
15556;DHT22;7879;48.660;9.116;2023-09-08T08:36:06;18.10;99.90
15556;DHT22;7879;48.660;9.116;2023-09-08T08:38:33;18.30;99.90
15556;DHT22;7879;48.660;9.116;2023-09-08T08:41:04;18.40;99.90
15556;DHT22;7879;48.660;9.116;2023-09-08T08:43:32;18.50;99.90
15556;DHT22;7879;48.660;9.116;2023-09-08T08:46:00;18.70;99.90
15556;DHT22;7879;48.660;9.116;2023-09-08T08:48:29;18.90;99.90
15556;DHT22;7879;48.660;9.116;2023-09-08T08:50:57;19.00;99.90
15556;DHT22;7879;48.660;9.116;2023-09-08T08:53:26;19.20;99.90
15556;DHT22;7879;48.660;9.116;2023-09-08T08:55:56;19.30;99.90
15556;DHT22;7879;48.660;9.116;2023-09-08T08:58:24;19.50;99.90
15556;DHT22;7879;48.660;9.116;2023-09-08T09:00:54;19.60;99.90
15556;DHT22;7879;48.660;9.116;2023-09-08T09:03:26;19.70;99.90
15556;DHT22;7879;48.660;9.116;2023-09-08T09:05:54;19.80;99.90
15556;DHT22;7879;48.660;9.116;2023-09-08T09:08:22;20.00;99.90
15556;DHT22;7879;48.660;9.116;2023-09-08T09:10:51;20.00;99.90
15556;DHT22;7879;48.660;9.116;2023-09-08T09:13:18;20.20;99.90
15556;DHT22;7879;48.660;9.116;2023-09-08T09:15:45;20.30;99.90
15556;DHT22;7879;48.660;9.116;2023-09-08T09:18:13;20.60;99.90
15556;DHT22;7879;48.660;9.116;2023-09-08T09:20:41;20.80;99.90
15556;DHT22;7879;48.660;9.116;2023-09-08T09:23:33;21.00;99.90
15556;DHT22;7879;48.660;9.116;2023-09-08T09:26:02;21.10;99.90
15556;DHT22;7879;48.660;9.116;2023-09-08T09:28:32;21.20;99.90
15556;DHT22;7879;48.660;9.116;2023-09-08T09:31:00;21.20;99.90
15556;DHT22;7879;48.660;9.116;2023-09-08T09:33:28;21.30;99.90
15556;DHT22;7879;48.660;9.116;2023-09-08T09:35:56;21.60;99.90
15556;DHT22;7879;48.660;9.116;2023-09-08T09:38:26;21.70;99.90
15556;DHT22;7879;48.660;9.116;2023-09-08T09:40:54;22.00;99.90
15556;DHT22;7879;48.660;9.116;2023-09-08T09:43:22;22.10;99.90
15556;DHT22;7879;48.660;9.116;2023-09-08T09:45:51;22.20;99.90
15556;DHT22;7879;48.660;9.116;2023-09-08T09:48:21;22.30;99.90
15556;DHT22;7879;48.660;9.116;2023-09-08T09:50:49;22.40;99.90
15556;DHT22;7879;48.660;9.116;2023-09-08T09:53:17;22.60;99.90
15556;DHT22;7879;48.660;9.116;2023-09-08T09:55:45;22.80;99.90
15556;DHT22;7879;48.660;9.116;2023-09-08T09:58:12;22.80;99.90
15556;DHT22;7879;48.660;9.116;2023-09-08T10:00:41;23.00;99.90
15556;DHT22;7879;48.660;9.116;2023-09-08T10:03:08;23.10;99.90
15556;DHT22;7879;48.660;9.116;2023-09-08T10:05:37;23.30;99.90
15556;DHT22;7879;48.660;9.116;2023-09-08T10:08:04;23.50;99.90
15556;DHT22;7879;48.660;9.116;2023-09-08T10:10:32;23.70;99.90
15556;DHT22;7879;48.660;9.116;2023-09-08T10:13:06;23.90;99.90
15556;DHT22;7879;48.660;9.116;2023-09-08T10:15:34;24.10;99.90
15556;DHT22;7879;48.660;9.116;2023-09-08T10:18:04;24.20;99.90
15556;DHT22;7879;48.660;9.116;2023-09-08T10:20:33;24.40;99.90
15556;DHT22;7879;48.660;9.116;2023-09-08T10:26:09;24.80;99.90
15556;DHT22;7879;48.660;9.116;2023-09-08T10:28:37;25.00;99.90
15556;DHT22;7879;48.660;9.116;2023-09-08T10:31:05;25.10;99.90
15556;DHT22;7879;48.660;9.116;2023-09-08T10:33:34;25.20;99.90
15556;DHT22;7879;48.660;9.116;2023-09-08T10:36:03;25.30;99.90
15556;DHT22;7879;48.660;9.116;2023-09-08T10:38:33;25.50;99.90
15556;DHT22;7879;48.660;9.116;2023-09-08T10:43:54;25.80;99.90
15556;DHT22;7879;48.660;9.116;2023-09-08T10:46:22;25.90;99.90
15556;DHT22;7879;48.660;9.116;2023-09-08T10:48:49;26.00;99.90
15556;DHT22;7879;48.660;9.116;2023-09-08T10:51:19;25.90;99.90
15556;DHT22;7879;48.660;9.116;2023-09-08T10:53:48;25.90;99.90
15556;DHT22;7879;48.660;9.116;2023-09-08T10:56:16;26.00;99.90
15556;DHT22;7879;48.660;9.116;2023-09-08T10:58:52;26.20;99.90
15556;DHT22;7879;48.660;9.116;2023-09-08T11:01:22;26.30;99.90
15556;DHT22;7879;48.660;9.116;2023-09-08T11:03:53;26.30;99.90
15556;DHT22;7879;48.660;9.116;2023-09-08T11:06:21;26.40;99.90
15556;DHT22;7879;48.660;9.116;2023-09-08T11:08:49;26.60;99.90
15556;DHT22;7879;48.660;9.116;2023-09-08T11:11:19;26.80;99.90
15556;DHT22;7879;48.660;9.116;2023-09-08T11:13:47;26.80;99.90
15556;DHT22;7879;48.660;9.116;2023-09-08T11:16:16;26.90;99.90
15556;DHT22;7879;48.660;9.116;2023-09-08T11:18:50;27.00;99.90
15556;DHT22;7879;48.660;9.116;2023-09-08T11:21:17;27.00;99.90
15556;DHT22;7879;48.660;9.116;2023-09-08T11:23:44;27.20;99.90
15556;DHT22;7879;48.660;9.116;2023-09-08T11:26:12;27.30;99.90
15556;DHT22;7879;48.660;9.116;2023-09-08T11:28:39;27.40;99.90
15556;DHT22;7879;48.660;9.116;2023-09-08T11:31:07;27.60;99.90
15556;DHT22;7879;48.660;9.116;2023-09-08T11:33:35;27.70;99.90
15556;DHT22;7879;48.660;9.116;2023-09-08T11:36:14;27.80;99.90
15556;DHT22;7879;48.660;9.116;2023-09-08T11:38:43;27.90;99.90
15556;DHT22;7879;48.660;9.116;2023-09-08T11:41:10;27.90;99.90
15556;DHT22;7879;48.660;9.116;2023-09-08T11:43:37;27.80;99.90
15556;DHT22;7879;48.660;9.116;2023-09-08T11:46:05;27.80;99.90
15556;DHT22;7879;48.660;9.116;2023-09-08T11:48:34;27.70;99.90
15556;DHT22;7879;48.660;9.116;2023-09-08T11:51:02;27.70;99.90
15556;DHT22;7879;48.660;9.116;2023-09-08T11:53:29;27.70;99.90
15556;DHT22;7879;48.660;9.116;2023-09-08T11:55:56;27.60;99.90
15556;DHT22;7879;48.660;9.116;2023-09-08T11:58:24;27.70;99.90
15556;DHT22;7879;48.660;9.116;2023-09-08T12:00:51;27.80;99.90
15556;DHT22;7879;48.660;9.116;2023-09-08T12:03:18;27.80;99.90
15556;DHT22;7879;48.660;9.116;2023-09-08T12:05:52;27.80;99.90
15556;DHT22;7879;48.660;9.116;2023-09-08T12:08:19;27.80;99.90
15556;DHT22;7879;48.660;9.116;2023-09-08T12:10:46;27.90;99.90
15556;DHT22;7879;48.660;9.116;2023-09-08T12:13:20;28.00;99.90
15556;DHT22;7879;48.660;9.116;2023-09-08T12:15:47;28.00;99.90
15556;DHT22;7879;48.660;9.116;2023-09-08T12:18:14;27.90;99.90
15556;DHT22;7879;48.660;9.116;2023-09-08T12:20:42;27.90;99.90
15556;DHT22;7879;48.660;9.116;2023-09-08T12:23:20;27.90;99.90
15556;DHT22;7879;48.660;9.116;2023-09-08T12:25:52;27.90;99.90
15556;DHT22;7879;48.660;9.116;2023-09-08T12:28:22;28.00;99.90
15556;DHT22;7879;48.660;9.116;2023-09-08T12:30:49;28.10;99.90
15556;DHT22;7879;48.660;9.116;2023-09-08T12:33:17;28.10;99.90
15556;DHT22;7879;48.660;9.116;2023-09-08T12:35:47;28.30;99.90
15556;DHT22;7879;48.660;9.116;2023-09-08T12:38:15;28.30;99.90
15556;DHT22;7879;48.660;9.116;2023-09-08T12:40:42;28.20;99.90
15556;DHT22;7879;48.660;9.116;2023-09-08T12:43:09;28.20;99.90
15556;DHT22;7879;48.660;9.116;2023-09-08T12:45:51;28.30;99.90
15556;DHT22;7879;48.660;9.116;2023-09-08T12:48:18;28.40;99.90
15556;DHT22;7879;48.660;9.116;2023-09-08T12:50:45;28.40;99.90
15556;DHT22;7879;48.660;9.116;2023-09-08T12:53:12;28.30;99.90
15556;DHT22;7879;48.660;9.116;2023-09-08T12:55:39;28.20;99.90
15556;DHT22;7879;48.660;9.116;2023-09-08T12:58:06;28.20;99.90
15556;DHT22;7879;48.660;9.116;2023-09-08T13:00:32;28.40;99.90
15556;DHT22;7879;48.660;9.116;2023-09-08T13:02:59;28.40;99.90
15556;DHT22;7879;48.660;9.116;2023-09-08T13:05:28;28.50;99.90
15556;DHT22;7879;48.660;9.116;2023-09-08T13:07:55;28.50;99.90
15556;DHT22;7879;48.660;9.116;2023-09-08T13:10:22;28.50;99.90
15556;DHT22;7879;48.660;9.116;2023-09-08T13:12:49;28.40;99.90
15556;DHT22;7879;48.660;9.116;2023-09-08T13:15:18;28.40;99.90
15556;DHT22;7879;48.660;9.116;2023-09-08T13:17:46;28.40;99.90
15556;DHT22;7879;48.660;9.116;2023-09-08T13:20:15;28.40;99.90
15556;DHT22;7879;48.660;9.116;2023-09-08T13:22:42;28.30;99.90
15556;DHT22;7879;48.660;9.116;2023-09-08T13:25:11;28.40;99.90
15556;DHT22;7879;48.660;9.116;2023-09-08T13:27:41;28.40;99.90
15556;DHT22;7879;48.660;9.116;2023-09-08T13:30:14;28.40;99.90
15556;DHT22;7879;48.660;9.116;2023-09-08T13:32:43;28.40;99.90
15556;DHT22;7879;48.660;9.116;2023-09-08T13:35:11;28.50;99.90
15556;DHT22;7879;48.660;9.116;2023-09-08T13:37:38;28.60;99.90
15556;DHT22;7879;48.660;9.116;2023-09-08T13:40:06;28.50;99.90
15556;DHT22;7879;48.660;9.116;2023-09-08T13:42:34;28.50;99.90
15556;DHT22;7879;48.660;9.116;2023-09-08T13:45:01;28.50;99.90
15556;DHT22;7879;48.660;9.116;2023-09-08T13:47:29;28.50;99.90
15556;DHT22;7879;48.660;9.116;2023-09-08T13:49:57;28.50;99.90
15556;DHT22;7879;48.660;9.116;2023-09-08T13:52:27;28.50;99.90
15556;DHT22;7879;48.660;9.116;2023-09-08T13:54:58;28.50;99.90
15556;DHT22;7879;48.660;9.116;2023-09-08T13:57:28;28.40;99.90
15556;DHT22;7879;48.660;9.116;2023-09-08T13:59:55;28.40;99.90
15556;DHT22;7879;48.660;9.116;2023-09-08T14:02:24;28.50;99.90
15556;DHT22;7879;48.660;9.116;2023-09-08T14:05:14;28.40;99.90
15556;DHT22;7879;48.660;9.116;2023-09-08T14:07:51;28.50;99.90
15556;DHT22;7879;48.660;9.116;2023-09-08T14:10:32;28.50;99.90
15556;DHT22;7879;48.660;9.116;2023-09-08T14:13:11;28.40;99.90
15556;DHT22;7879;48.660;9.116;2023-09-08T14:15:39;28.50;99.90
15556;DHT22;7879;48.660;9.116;2023-09-08T14:18:06;28.50;99.90
15556;DHT22;7879;48.660;9.116;2023-09-08T14:20:33;28.50;99.90
15556;DHT22;7879;48.660;9.116;2023-09-08T14:23:00;28.50;99.90
15556;DHT22;7879;48.660;9.116;2023-09-08T14:25:27;28.50;99.90
15556;DHT22;7879;48.660;9.116;2023-09-08T14:27:54;28.50;99.90
15556;DHT22;7879;48.660;9.116;2023-09-08T14:30:21;28.50;99.90
15556;DHT22;7879;48.660;9.116;2023-09-08T14:32:48;28.60;99.80
15556;DHT22;7879;48.660;9.116;2023-09-08T14:35:15;28.50;99.70
15556;DHT22;7879;48.660;9.116;2023-09-08T14:37:41;28.50;99.90
15556;DHT22;7879;48.660;9.116;2023-09-08T14:40:08;28.50;99.90
15556;DHT22;7879;48.660;9.116;2023-09-08T14:42:35;28.40;99.80
15556;DHT22;7879;48.660;9.116;2023-09-08T14:45:02;28.40;99.70
15556;DHT22;7879;48.660;9.116;2023-09-08T14:47:30;28.40;99.50
15556;DHT22;7879;48.660;9.116;2023-09-08T14:49:59;28.40;99.50
15556;DHT22;7879;48.660;9.116;2023-09-08T14:52:26;28.40;99.40
15556;DHT22;7879;48.660;9.116;2023-09-08T14:54:52;28.40;99.30
15556;DHT22;7879;48.660;9.116;2023-09-08T14:57:19;28.40;99.20
15556;DHT22;7879;48.660;9.116;2023-09-08T14:59:46;28.40;99.10
15556;DHT22;7879;48.660;9.116;2023-09-08T15:02:13;28.40;98.70
15556;DHT22;7879;48.660;9.116;2023-09-08T15:04:40;28.30;98.50
15556;DHT22;7879;48.660;9.116;2023-09-08T15:07:06;28.30;98.70
15556;DHT22;7879;48.660;9.116;2023-09-08T15:09:33;28.20;98.50
15556;DHT22;7879;48.660;9.116;2023-09-08T15:12:00;28.20;98.70
15556;DHT22;7879;48.660;9.116;2023-09-08T15:14:27;28.30;98.50
15556;DHT22;7879;48.660;9.116;2023-09-08T15:16:54;28.30;98.50
15556;DHT22;7879;48.660;9.116;2023-09-08T15:19:21;28.30;98.20
15556;DHT22;7879;48.660;9.116;2023-09-08T15:21:48;28.30;98.00
15556;DHT22;7879;48.660;9.116;2023-09-08T15:24:15;28.20;98.10
15556;DHT22;7879;48.660;9.116;2023-09-08T15:26:42;28.20;98.00
15556;DHT22;7879;48.660;9.116;2023-09-08T15:29:12;28.10;97.90
15556;DHT22;7879;48.660;9.116;2023-09-08T15:31:39;28.10;98.40
15556;DHT22;7879;48.660;9.116;2023-09-08T15:34:06;28.10;98.20
15556;DHT22;7879;48.660;9.116;2023-09-08T15:36:34;28.00;98.20
15556;DHT22;7879;48.660;9.116;2023-09-08T15:39:01;28.00;98.30
15556;DHT22;7879;48.660;9.116;2023-09-08T15:41:30;28.00;97.90
15556;DHT22;7879;48.660;9.116;2023-09-08T15:43:57;27.90;98.00
15556;DHT22;7879;48.660;9.116;2023-09-08T15:46:24;27.90;97.80
15556;DHT22;7879;48.660;9.116;2023-09-08T15:48:52;27.90;97.30
15556;DHT22;7879;48.660;9.116;2023-09-08T15:51:19;27.80;97.00
15556;DHT22;7879;48.660;9.116;2023-09-08T15:53:46;27.80;97.10